Ashland, Louisiana
Current Conditions -  °F | °C
As of 7:15 AM on Saturday 01 Nov 2014 (Local Time) from KIER Reporting Station
Clear Clear  
Wind Chill: 34°   Ceiling: Unl
Heat Index: 40°   Visibility: 10mi
Dew Point: 29°   Wind: 10mph
Humidity: 65%   Direction: 30°NNE
Pressure: 30.41"   Gusts: NA
Location:  32.14°N, 93.1°W
Report Text: KIER 011215Z AUTO 03009KT 10SM CLR 05/M02 A3041 RMK AO2 T00451016
Loading
Personal Weather Stations






























Interactive Weather Map
Tropical Storm Tracking
New forecast layout! Learn more

10-Day Weather Forecast

Advertisements
Track Severe Weather on mobile